sensor_id;sensor_type;location;lat;lon;timestamp;pressure;altitude;pressure_sealevel;temperature;humidity
26823;BME280;14852;51.910;8.878;2022-08-11T00:00:13;100538.38;;;18.91;45.51
26823;BME280;14852;51.910;8.878;2022-08-11T00:02:49;100537.03;;;18.85;45.44
26823;BME280;14852;51.910;8.878;2022-08-11T00:05:20;100540.72;;;18.83;45.49
26823;BME280;14852;51.910;8.878;2022-08-11T00:07:55;100533.78;;;18.81;45.39
26823;BME280;14852;51.910;8.878;2022-08-11T00:10:27;100535.81;;;18.78;45.71
26823;BME280;14852;51.910;8.878;2022-08-11T00:13:00;100536.97;;;18.74;45.38
26823;BME280;14852;51.910;8.878;2022-08-11T00:15:40;100531.44;;;18.66;45.91
26823;BME280;14852;51.910;8.878;2022-08-11T00:18:07;100547.88;;;18.57;46.01
26823;BME280;14852;51.910;8.878;2022-08-11T00:20:37;100542.31;;;18.49;46.19
26823;BME280;14852;51.910;8.878;2022-08-11T00:23:14;100540.75;;;18.46;46.61
26823;BME280;14852;51.910;8.878;2022-08-11T00:25:47;100534.78;;;18.44;46.69
26823;BME280;14852;51.910;8.878;2022-08-11T00:28:33;100531.06;;;18.46;46.39
26823;BME280;14852;51.910;8.878;2022-08-11T00:31:05;100534.78;;;18.44;46.18
26823;BME280;14852;51.910;8.878;2022-08-11T00:36:04;100540.03;;;18.44;47.07
26823;BME280;14852;51.910;8.878;2022-08-11T00:38:36;100540.16;;;18.42;46.34
26823;BME280;14852;51.910;8.878;2022-08-11T00:56:17;100535.63;;;18.08;47.31
26823;BME280;14852;51.910;8.878;2022-08-11T00:59:47;100534.06;;;18.05;47.24
26823;BME280;14852;51.910;8.878;2022-08-11T01:46:06;100539.75;;;17.61;48.05
26823;BME280;14852;51.910;8.878;2022-08-11T01:48:55;100538.63;;;17.53;48.53
26823;BME280;14852;51.910;8.878;2022-08-11T01:51:49;100536.28;;;17.48;48.74
26823;BME280;14852;51.910;8.878;2022-08-11T01:54:48;100540.91;;;17.45;48.83
26823;BME280;14852;51.910;8.878;2022-08-11T01:57:38;100542.09;;;17.41;48.83
26823;BME280;14852;51.910;8.878;2022-08-11T02:00:23;100541.63;;;17.34;48.73
26823;BME280;14852;51.910;8.878;2022-08-11T02:03:14;100535.03;;;17.28;49.26
26823;BME280;14852;51.910;8.878;2022-08-11T02:05:51;100540.59;;;17.24;49.09
26823;BME280;14852;51.910;8.878;2022-08-11T02:08:52;100543.50;;;17.19;49.31
26823;BME280;14852;51.910;8.878;2022-08-11T02:11:31;100538.69;;;17.13;49.28
26823;BME280;14852;51.910;8.878;2022-08-11T02:17:52;100542.25;;;17.12;49.73
26823;BME280;14852;51.910;8.878;2022-08-11T02:19:59;100544.13;;;17.10;49.41
26823;BME280;14852;51.910;8.878;2022-08-11T02:23:20;100540.75;;;17.08;49.63
26823;BME280;14852;51.910;8.878;2022-08-11T02:26:21;100547.09;;;17.06;49.59
26823;BME280;14852;51.910;8.878;2022-08-11T02:29:15;100542.13;;;17.01;49.65
26823;BME280;14852;51.910;8.878;2022-08-11T02:35:03;100544.72;;;16.88;50.21
26823;BME280;14852;51.910;8.878;2022-08-11T02:42:51;100545.34;;;16.79;50.58
26823;BME280;14852;51.910;8.878;2022-08-11T02:45:55;100543.94;;;16.74;50.58
26823;BME280;14852;51.910;8.878;2022-08-11T02:48:49;100544.53;;;16.64;50.54
26823;BME280;14852;51.910;8.878;2022-08-11T02:52:13;100552.88;;;16.57;51.07
26823;BME280;14852;51.910;8.878;2022-08-11T02:55:23;100545.19;;;16.54;50.65
26823;BME280;14852;51.910;8.878;2022-08-11T02:58:12;100549.69;;;16.52;50.64
26823;BME280;14852;51.910;8.878;2022-08-11T03:01:02;100549.59;;;16.53;50.51
26823;BME280;14852;51.910;8.878;2022-08-11T03:06:38;100556.09;;;16.48;51.14
26823;BME280;14852;51.910;8.878;2022-08-11T03:09:52;100551.88;;;16.45;50.68
26823;BME280;14852;51.910;8.878;2022-08-11T03:12:29;100549.78;;;16.38;50.99
26823;BME280;14852;51.910;8.878;2022-08-11T03:15:40;100546.31;;;16.37;51.11
26823;BME280;14852;51.910;8.878;2022-08-11T03:21:24;100552.38;;;16.38;51.10
26823;BME280;14852;51.910;8.878;2022-08-11T03:24:12;100548.19;;;16.35;51.32
26823;BME280;14852;51.910;8.878;2022-08-11T03:30:34;100539.41;;;16.22;51.45
26823;BME280;14852;51.910;8.878;2022-08-11T03:33:27;100547.53;;;16.17;51.61
26823;BME280;14852;51.910;8.878;2022-08-11T03:45:16;100557.22;;;16.03;51.83
26823;BME280;14852;51.910;8.878;2022-08-11T03:48:12;100563.59;;;15.99;52.13
26823;BME280;14852;51.910;8.878;2022-08-11T03:54:27;100559.84;;;15.88;52.23
26823;BME280;14852;51.910;8.878;2022-08-11T04:06:07;100567.44;;;15.79;52.44
26823;BME280;14852;51.910;8.878;2022-08-11T04:12:17;100554.03;;;15.83;52.40
26823;BME280;14852;51.910;8.878;2022-08-11T04:18:50;100550.41;;;15.86;52.51
26823;BME280;14852;51.910;8.878;2022-08-11T04:22:13;100553.09;;;15.84;52.21
26823;BME280;14852;51.910;8.878;2022-08-11T04:25:09;100558.44;;;15.83;52.49
26823;BME280;14852;51.910;8.878;2022-08-11T04:31:17;100554.88;;;15.84;52.59
26823;BME280;14852;51.910;8.878;2022-08-11T04:56:35;100555.63;;;17.60;50.31
26823;BME280;14852;51.910;8.878;2022-08-11T04:59:35;100545.97;;;19.17;47.24
26823;BME280;14852;51.910;8.878;2022-08-11T05:03:19;100541.72;;;20.82;44.31
26823;BME280;14852;51.910;8.878;2022-08-11T05:06:33;100539.19;;;22.15;42.01
26823;BME280;14852;51.910;8.878;2022-08-11T05:09:34;100526.13;;;23.20;40.71
26823;BME280;14852;51.910;8.878;2022-08-11T05:12:21;100532.69;;;24.09;39.16
26823;BME280;14852;51.910;8.878;2022-08-11T05:14:52;100530.34;;;24.86;38.14
26823;BME280;14852;51.910;8.878;2022-08-11T05:18:06;100525.34;;;25.53;37.33
26823;BME280;14852;51.910;8.878;2022-08-11T05:20:54;100519.84;;;26.22;37.13
26823;BME280;14852;51.910;8.878;2022-08-11T05:23:46;100515.00;;;26.92;36.36
26823;BME280;14852;51.910;8.878;2022-08-11T05:26:47;100508.94;;;27.55;35.33
26823;BME280;14852;51.910;8.878;2022-08-11T05:29:48;100515.53;;;28.15;34.93
26823;BME280;14852;51.910;8.878;2022-08-11T05:32:40;100511.00;;;28.69;33.90
26823;BME280;14852;51.910;8.878;2022-08-11T05:35:36;100516.88;;;29.25;32.74
26823;BME280;14852;51.910;8.878;2022-08-11T05:38:07;100516.47;;;29.80;32.51
26823;BME280;14852;51.910;8.878;2022-08-11T05:40:54;100514.66;;;30.52;31.43
26823;BME280;14852;51.910;8.878;2022-08-11T05:43:43;100507.66;;;31.22;30.77
26823;BME280;14852;51.910;8.878;2022-08-11T05:46:28;100503.88;;;31.72;30.13
26823;BME280;14852;51.910;8.878;2022-08-11T05:49:14;100499.06;;;32.15;29.76
26823;BME280;14852;51.910;8.878;2022-08-11T05:51:59;100502.84;;;32.34;28.95
26823;BME280;14852;51.910;8.878;2022-08-11T05:54:46;100503.50;;;32.49;28.54
26823;BME280;14852;51.910;8.878;2022-08-11T05:57:35;100494.06;;;32.99;28.77
26823;BME280;14852;51.910;8.878;2022-08-11T06:00:07;100491.28;;;33.52;28.44
26823;BME280;14852;51.910;8.878;2022-08-11T06:02:51;100493.38;;;34.01;27.90
26823;BME280;14852;51.910;8.878;2022-08-11T06:05:33;100501.13;;;34.29;27.47
26823;BME280;14852;51.910;8.878;2022-08-11T06:07:59;100495.94;;;34.34;27.26
26823;BME280;14852;51.910;8.878;2022-08-11T06:10:32;100498.16;;;34.69;26.57
26823;BME280;14852;51.910;8.878;2022-08-11T06:12:59;100494.69;;;34.93;26.63
26823;BME280;14852;51.910;8.878;2022-08-11T06:15:27;100490.03;;;35.43;26.53
26823;BME280;14852;51.910;8.878;2022-08-11T06:17:54;100482.81;;;35.92;25.65
26823;BME280;14852;51.910;8.878;2022-08-11T06:20:21;100486.78;;;36.38;25.45
26823;BME280;14852;51.910;8.878;2022-08-11T06:23:04;100488.91;;;36.77;25.07
26823;BME280;14852;51.910;8.878;2022-08-11T06:25:34;100480.19;;;37.10;24.57
26823;BME280;14852;51.910;8.878;2022-08-11T06:28:04;100483.38;;;37.19;24.39
26823;BME280;14852;51.910;8.878;2022-08-11T06:30:39;100489.34;;;37.44;24.40
26823;BME280;14852;51.910;8.878;2022-08-11T06:33:30;100466.94;;;37.72;23.96
26823;BME280;14852;51.910;8.878;2022-08-11T06:37:06;100483.28;;;38.34;23.78
26823;BME280;14852;51.910;8.878;2022-08-11T06:39:22;100470.66;;;38.90;23.02
26823;BME280;14852;51.910;8.878;2022-08-11T06:45:16;100466.44;;;39.81;22.18
26823;BME280;14852;51.910;8.878;2022-08-11T06:47:45;100463.13;;;39.74;21.62
26823;BME280;14852;51.910;8.878;2022-08-11T06:50:18;100472.38;;;39.51;21.73
26823;BME280;14852;51.910;8.878;2022-08-11T06:53:05;100462.63;;;39.33;21.58
26823;BME280;14852;51.910;8.878;2022-08-11T06:55:35;100468.78;;;39.29;21.27
26823;BME280;14852;51.910;8.878;2022-08-11T06:58:39;100466.44;;;39.37;21.25
26823;BME280;14852;51.910;8.878;2022-08-11T07:04:51;100454.69;;;40.24;20.41
26823;BME280;14852;51.910;8.878;2022-08-11T07:14:24;100457.59;;;40.17;19.70
26823;BME280;14852;51.910;8.878;2022-08-11T07:17:25;100465.78;;;40.17;19.85
26823;BME280;14852;51.910;8.878;2022-08-11T07:19:59;100465.56;;;40.51;19.36
26823;BME280;14852;51.910;8.878;2022-08-11T07:22:54;100467.16;;;40.79;20.53
26823;BME280;14852;51.910;8.878;2022-08-11T07:25:43;100460.06;;;40.73;18.74
26823;BME280;14852;51.910;8.878;2022-08-11T07:28:30;100460.97;;;40.57;17.99
26823;BME280;14852;51.910;8.878;2022-08-11T07:34:20;100457.66;;;40.86;18.40
26823;BME280;14852;51.910;8.878;2022-08-11T07:36:59;100460.94;;;40.83;18.01
26823;BME280;14852;51.910;8.878;2022-08-11T07:39:31;100454.22;;;41.01;17.24
26823;BME280;14852;51.910;8.878;2022-08-11T07:41:59;100454.13;;;40.86;17.30
26823;BME280;14852;51.910;8.878;2022-08-11T07:44:30;100453.97;;;41.03;17.31
26823;BME280;14852;51.910;8.878;2022-08-11T07:46:56;100451.09;;;41.25;16.79
26823;BME280;14852;51.910;8.878;2022-08-11T07:49:53;100458.25;;;41.31;16.56
26823;BME280;14852;51.910;8.878;2022-08-11T07:52:38;100447.78;;;41.12;16.54
26823;BME280;14852;51.910;8.878;2022-08-11T07:55:14;100457.72;;;40.97;16.25
26823;BME280;14852;51.910;8.878;2022-08-11T07:57:44;100454.63;;;41.20;16.27
26823;BME280;14852;51.910;8.878;2022-08-11T08:00:34;100448.06;;;41.16;16.34
26823;BME280;14852;51.910;8.878;2022-08-11T08:03:19;100455.19;;;41.22;16.04
26823;BME280;14852;51.910;8.878;2022-08-11T08:06:05;100451.53;;;41.06;16.26
26823;BME280;14852;51.910;8.878;2022-08-11T08:08:49;100455.09;;;41.07;16.48
26823;BME280;14852;51.910;8.878;2022-08-11T08:11:34;100450.06;;;41.36;16.43
26823;BME280;14852;51.910;8.878;2022-08-11T08:14:18;100454.56;;;41.67;16.35
26823;BME280;14852;51.910;8.878;2022-08-11T08:17:04;100451.31;;;41.80;15.72
26823;BME280;14852;51.910;8.878;2022-08-11T08:19:49;100462.78;;;41.20;15.84
26823;BME280;14852;51.910;8.878;2022-08-11T08:22:17;100461.28;;;40.97;16.06
26823;BME280;14852;51.910;8.878;2022-08-11T08:24:44;100456.59;;;41.30;15.95
26823;BME280;14852;51.910;8.878;2022-08-11T08:27:12;100467.47;;;41.25;15.71
26823;BME280;14852;51.910;8.878;2022-08-11T08:29:39;100459.81;;;41.16;15.18
26823;BME280;14852;51.910;8.878;2022-08-11T08:32:41;100458.91;;;40.69;15.89
26823;BME280;14852;51.910;8.878;2022-08-11T08:35:10;100461.78;;;39.98;16.56
26823;BME280;14852;51.910;8.878;2022-08-11T08:37:37;100457.72;;;40.28;16.49
26823;BME280;14852;51.910;8.878;2022-08-11T08:40:06;100448.50;;;40.02;16.05
26823;BME280;14852;51.910;8.878;2022-08-11T08:42:58;100459.31;;;39.75;16.75
26823;BME280;14852;51.910;8.878;2022-08-11T08:45:27;100455.84;;;40.01;16.62
26823;BME280;14852;51.910;8.878;2022-08-11T08:48:03;100460.75;;;39.56;17.19
26823;BME280;14852;51.910;8.878;2022-08-11T08:50:36;100466.31;;;38.55;17.63
26823;BME280;14852;51.910;8.878;2022-08-11T08:53:39;100461.81;;;37.76;18.65
26823;BME280;14852;51.910;8.878;2022-08-11T08:56:06;100458.97;;;36.95;19.47
26823;BME280;14852;51.910;8.878;2022-08-11T08:58:36;100463.25;;;36.08;19.64
26823;BME280;14852;51.910;8.878;2022-08-11T09:01:04;100454.22;;;35.48;20.46
26823;BME280;14852;51.910;8.878;2022-08-11T09:03:30;100464.03;;;35.06;21.09
26823;BME280;14852;51.910;8.878;2022-08-11T09:06:00;100469.53;;;34.68;21.41
26823;BME280;14852;51.910;8.878;2022-08-11T09:08:26;100465.56;;;34.39;21.92
26823;BME280;14852;51.910;8.878;2022-08-11T09:10:55;100470.25;;;34.19;21.82
26823;BME280;14852;51.910;8.878;2022-08-11T09:13:41;100461.19;;;34.06;21.95
26823;BME280;14852;51.910;8.878;2022-08-11T09:16:11;100464.34;;;34.03;21.87
26823;BME280;14852;51.910;8.878;2022-08-11T09:18:38;100458.81;;;33.92;22.21
26823;BME280;14852;51.910;8.878;2022-08-11T09:21:04;100451.44;;;34.05;22.15
26823;BME280;14852;51.910;8.878;2022-08-11T09:23:31;100456.81;;;34.12;21.90
26823;BME280;14852;51.910;8.878;2022-08-11T09:26:16;100456.34;;;34.22;21.95
26823;BME280;14852;51.910;8.878;2022-08-11T09:29:02;100454.50;;;34.15;21.95
26823;BME280;14852;51.910;8.878;2022-08-11T09:31:32;100452.13;;;34.01;21.82
26823;BME280;14852;51.910;8.878;2022-08-11T09:33:58;100460.44;;;33.93;21.79
26823;BME280;14852;51.910;8.878;2022-08-11T09:36:26;100447.19;;;33.91;21.97
26823;BME280;14852;51.910;8.878;2022-08-11T09:39:12;100459.63;;;33.92;21.54
26823;BME280;14852;51.910;8.878;2022-08-11T09:42:01;100451.91;;;34.02;21.93
26823;BME280;14852;51.910;8.878;2022-08-11T09:44:30;100454.03;;;34.25;21.15
26823;BME280;14852;51.910;8.878;2022-08-11T09:47:27;100454.78;;;34.39;21.60
26823;BME280;14852;51.910;8.878;2022-08-11T09:50:01;100439.72;;;34.25;20.89
26823;BME280;14852;51.910;8.878;2022-08-11T09:52:31;100437.59;;;34.02;20.80
26823;BME280;14852;51.910;8.878;2022-08-11T09:54:59;100441.75;;;33.98;21.20
26823;BME280;14852;51.910;8.878;2022-08-11T09:57:26;100440.81;;;33.79;20.58
26823;BME280;14852;51.910;8.878;2022-08-11T10:00:12;100424.09;;;33.57;20.71
26823;BME280;14852;51.910;8.878;2022-08-11T10:02:44;100433.81;;;33.65;20.95
26823;BME280;14852;51.910;8.878;2022-08-11T10:05:16;100432.56;;;33.61;20.22
26823;BME280;14852;51.910;8.878;2022-08-11T10:08:02;100433.34;;;33.74;20.20
26823;BME280;14852;51.910;8.878;2022-08-11T10:10:30;100428.38;;;33.78;20.36
26823;BME280;14852;51.910;8.878;2022-08-11T10:13:04;100432.94;;;33.77;20.14
26823;BME280;14852;51.910;8.878;2022-08-11T10:15:32;100428.53;;;33.90;20.72
26823;BME280;14852;51.910;8.878;2022-08-11T10:18:18;100414.22;;;33.89;20.23
26823;BME280;14852;51.910;8.878;2022-08-11T10:23:58;100420.19;;;33.98;20.49
26823;BME280;14852;51.910;8.878;2022-08-11T10:26:44;100418.94;;;34.00;20.20
26823;BME280;14852;51.910;8.878;2022-08-11T10:29:39;100403.81;;;33.93;20.41
26823;BME280;14852;51.910;8.878;2022-08-11T10:32:27;100402.19;;;33.92;20.35
26823;BME280;14852;51.910;8.878;2022-08-11T10:35:20;100403.88;;;33.86;20.20
26823;BME280;14852;51.910;8.878;2022-08-11T10:37:52;100399.16;;;33.75;20.48
26823;BME280;14852;51.910;8.878;2022-08-11T10:40:21;100397.66;;;33.86;20.47
26823;BME280;14852;51.910;8.878;2022-08-11T10:42:53;100393.44;;;33.96;20.35
26823;BME280;14852;51.910;8.878;2022-08-11T10:45:35;100393.41;;;34.03;20.48
26823;BME280;14852;51.910;8.878;2022-08-11T10:48:27;100396.88;;;34.10;20.33
26823;BME280;14852;51.910;8.878;2022-08-11T10:50:54;100391.00;;;34.20;21.01
26823;BME280;14852;51.910;8.878;2022-08-11T10:53:48;100376.72;;;34.44;20.48
26823;BME280;14852;51.910;8.878;2022-08-11T10:56:38;100380.84;;;34.71;19.74
26823;BME280;14852;51.910;8.878;2022-08-11T10:59:27;100365.81;;;34.82;19.82
26823;BME280;14852;51.910;8.878;2022-08-11T11:01:53;100365.22;;;34.73;19.36
26823;BME280;14852;51.910;8.878;2022-08-11T11:04:26;100361.28;;;34.76;19.76
26823;BME280;14852;51.910;8.878;2022-08-11T11:07:09;100365.19;;;34.80;19.46
26823;BME280;14852;51.910;8.878;2022-08-11T11:09:47;100367.78;;;34.68;19.78
26823;BME280;14852;51.910;8.878;2022-08-11T11:12:28;100358.41;;;34.71;20.05
26823;BME280;14852;51.910;8.878;2022-08-11T11:15:18;100356.13;;;34.93;19.68
26823;BME280;14852;51.910;8.878;2022-08-11T11:18:27;100349.44;;;35.13;19.29
26823;BME280;14852;51.910;8.878;2022-08-11T11:21:12;100344.78;;;35.39;19.61
26823;BME280;14852;51.910;8.878;2022-08-11T11:24:08;100338.88;;;35.60;19.33
26823;BME280;14852;51.910;8.878;2022-08-11T11:27:03;100339.91;;;35.77;18.98
26823;BME280;14852;51.910;8.878;2022-08-11T11:33:19;100344.78;;;35.69;19.23
26823;BME280;14852;51.910;8.878;2022-08-11T11:36:07;100344.75;;;35.75;19.00
26823;BME280;14852;51.910;8.878;2022-08-11T11:38:37;100332.59;;;35.78;18.86
26823;BME280;14852;51.910;8.878;2022-08-11T11:41:03;100334.41;;;35.84;19.08
26823;BME280;14852;51.910;8.878;2022-08-11T11:43:48;100341.25;;;35.86;18.66
26823;BME280;14852;51.910;8.878;2022-08-11T11:46:14;100335.09;;;35.79;18.51
26823;BME280;14852;51.910;8.878;2022-08-11T11:48:41;100332.28;;;35.74;18.80
26823;BME280;14852;51.910;8.878;2022-08-11T11:51:08;100328.41;;;35.82;18.72
26823;BME280;14852;51.910;8.878;2022-08-11T11:53:41;100319.94;;;35.90;18.87
26823;BME280;14852;51.910;8.878;2022-08-11T11:56:10;100319.91;;;35.78;18.83
26823;BME280;14852;51.910;8.878;2022-08-11T11:58:38;100324.16;;;35.56;19.11
26823;BME280;14852;51.910;8.878;2022-08-11T12:01:24;100322.72;;;35.42;18.73
26823;BME280;14852;51.910;8.878;2022-08-11T12:03:53;100321.38;;;35.14;19.04
26823;BME280;14852;51.910;8.878;2022-08-11T12:06:24;100316.19;;;35.13;19.23
26823;BME280;14852;51.910;8.878;2022-08-11T12:08:54;100310.34;;;35.16;18.99
26823;BME280;14852;51.910;8.878;2022-08-11T12:11:24;100311.41;;;35.15;19.10
26823;BME280;14852;51.910;8.878;2022-08-11T12:14:10;100303.28;;;35.15;19.07
26823;BME280;14852;51.910;8.878;2022-08-11T12:16:43;100295.88;;;35.10;18.38
26823;BME280;14852;51.910;8.878;2022-08-11T12:19:16;100298.88;;;35.02;18.29
26823;BME280;14852;51.910;8.878;2022-08-11T12:21:43;100297.47;;;34.81;18.70
26823;BME280;14852;51.910;8.878;2022-08-11T12:24:32;100290.69;;;34.54;18.33
26823;BME280;14852;51.910;8.878;2022-08-11T12:27:18;100286.50;;;34.58;18.67
26823;BME280;14852;51.910;8.878;2022-08-11T12:30:00;100292.72;;;34.59;18.17
26823;BME280;14852;51.910;8.878;2022-08-11T12:32:33;100294.19;;;34.55;18.20
26823;BME280;14852;51.910;8.878;2022-08-11T12:34:59;100288.19;;;34.53;18.03
26823;BME280;14852;51.910;8.878;2022-08-11T12:37:43;100283.84;;;34.51;18.64
26823;BME280;14852;51.910;8.878;2022-08-11T12:40:17;100277.78;;;34.38;18.50
26823;BME280;14852;51.910;8.878;2022-08-11T12:43:06;100272.97;;;34.40;18.44
26823;BME280;14852;51.910;8.878;2022-08-11T12:45:57;100268.25;;;34.35;18.59
26823;BME280;14852;51.910;8.878;2022-08-11T12:48:31;100263.22;;;34.39;18.65
26823;BME280;14852;51.910;8.878;2022-08-11T12:51:22;100263.22;;;34.39;18.48
26823;BME280;14852;51.910;8.878;2022-08-11T12:56:51;100260.84;;;34.49;18.86
26823;BME280;14852;51.910;8.878;2022-08-11T12:59:38;100253.88;;;34.60;18.80
26823;BME280;14852;51.910;8.878;2022-08-11T13:02:25;100255.69;;;34.47;18.15
26823;BME280;14852;51.910;8.878;2022-08-11T13:05:15;100263.56;;;34.49;17.94
26823;BME280;14852;51.910;8.878;2022-08-11T13:07:43;100256.56;;;34.41;18.54
26823;BME280;14852;51.910;8.878;2022-08-11T13:10:12;100257.25;;;34.37;18.20
26823;BME280;14852;51.910;8.878;2022-08-11T13:12:40;100254.00;;;34.28;18.28
26823;BME280;14852;51.910;8.878;2022-08-11T13:15:21;100253.41;;;34.26;17.88
26823;BME280;14852;51.910;8.878;2022-08-11T13:17:50;100246.16;;;34.20;18.38
26823;BME280;14852;51.910;8.878;2022-08-11T13:20:22;100247.50;;;34.36;17.97
26823;BME280;14852;51.910;8.878;2022-08-11T13:22:53;100243.13;;;34.53;18.45
26823;BME280;14852;51.910;8.878;2022-08-11T13:25:25;100235.50;;;34.68;17.66
26823;BME280;14852;51.910;8.878;2022-08-11T13:27:54;100236.72;;;34.72;18.18
26823;BME280;14852;51.910;8.878;2022-08-11T13:30:24;100227.41;;;34.86;17.81
26823;BME280;14852;51.910;8.878;2022-08-11T13:33:10;100232.25;;;34.96;17.79
26823;BME280;14852;51.910;8.878;2022-08-11T13:35:38;100232.63;;;35.00;18.26
26823;BME280;14852;51.910;8.878;2022-08-11T13:38:04;100232.91;;;35.10;17.42
26823;BME280;14852;51.910;8.878;2022-08-11T13:40:32;100223.94;;;34.98;17.85
26823;BME280;14852;51.910;8.878;2022-08-11T13:42:58;100225.75;;;34.85;17.45
26823;BME280;14852;51.910;8.878;2022-08-11T13:45:25;100227.78;;;34.90;18.16
26823;BME280;14852;51.910;8.878;2022-08-11T13:47:55;100227.63;;;34.85;17.45
26823;BME280;14852;51.910;8.878;2022-08-11T13:50:26;100215.69;;;34.74;17.78
26823;BME280;14852;51.910;8.878;2022-08-11T13:53:12;100228.66;;;34.66;17.64
26823;BME280;14852;51.910;8.878;2022-08-11T13:55:41;100227.34;;;34.57;17.40
26823;BME280;14852;51.910;8.878;2022-08-11T13:58:09;100215.03;;;34.42;17.28
26823;BME280;14852;51.910;8.878;2022-08-11T14:00:36;100212.41;;;34.36;17.65
26823;BME280;14852;51.910;8.878;2022-08-11T14:03:08;100207.53;;;34.44;17.96
26823;BME280;14852;51.910;8.878;2022-08-11T14:05:47;100204.19;;;34.49;17.93
26823;BME280;14852;51.910;8.878;2022-08-11T14:08:25;100201.00;;;34.52;17.85
26823;BME280;14852;51.910;8.878;2022-08-11T14:10:52;100200.88;;;34.47;17.94
26823;BME280;14852;51.910;8.878;2022-08-11T14:13:41;100198.78;;;34.49;18.10
26823;BME280;14852;51.910;8.878;2022-08-11T14:16:15;100194.13;;;34.56;18.48
26823;BME280;14852;51.910;8.878;2022-08-11T14:18:46;100191.59;;;34.61;18.09
26823;BME280;14852;51.910;8.878;2022-08-11T14:21:17;100183.72;;;34.60;18.08
26823;BME280;14852;51.910;8.878;2022-08-11T14:24:05;100191.44;;;34.56;18.09
26823;BME280;14852;51.910;8.878;2022-08-11T14:26:31;100188.72;;;34.56;18.11
26823;BME280;14852;51.910;8.878;2022-08-11T14:29:15;100200.94;;;34.59;17.84
26823;BME280;14852;51.910;8.878;2022-08-11T14:31:55;100190.38;;;34.57;17.86
26823;BME280;14852;51.910;8.878;2022-08-11T14:34:25;100184.53;;;34.60;18.26
26823;BME280;14852;51.910;8.878;2022-08-11T14:36:58;100187.97;;;34.67;17.83
26823;BME280;14852;51.910;8.878;2022-08-11T14:39:27;100189.47;;;34.63;18.01
26823;BME280;14852;51.910;8.878;2022-08-11T14:42:05;100187.22;;;34.60;17.91
26823;BME280;14852;51.910;8.878;2022-08-11T14:44:56;100184.53;;;34.60;17.91
26823;BME280;14852;51.910;8.878;2022-08-11T14:47:44;100184.00;;;34.51;18.37
26823;BME280;14852;51.910;8.878;2022-08-11T14:50:16;100180.84;;;34.55;17.97
26823;BME280;14852;51.910;8.878;2022-08-11T14:55:28;100178.81;;;34.68;17.97
26823;BME280;14852;51.910;8.878;2022-08-11T14:58:18;100164.41;;;34.74;17.64
26823;BME280;14852;51.910;8.878;2022-08-11T15:00:45;100169.59;;;34.76;17.99
26823;BME280;14852;51.910;8.878;2022-08-11T15:03:13;100172.47;;;34.81;17.45
26823;BME280;14852;51.910;8.878;2022-08-11T15:08:14;100172.69;;;34.61;18.02
26823;BME280;14852;51.910;8.878;2022-08-11T15:10:41;100175.38;;;34.61;17.94
26823;BME280;14852;51.910;8.878;2022-08-11T15:13:07;100176.72;;;34.52;17.93
26823;BME280;14852;51.910;8.878;2022-08-11T15:15:36;100173.97;;;34.40;17.95
26823;BME280;14852;51.910;8.878;2022-08-11T15:18:24;100169.03;;;34.37;18.23
26823;BME280;14852;51.910;8.878;2022-08-11T15:20:51;100164.91;;;34.35;18.67
26823;BME280;14852;51.910;8.878;2022-08-11T15:23:39;100165.72;;;34.35;18.64
26823;BME280;14852;51.910;8.878;2022-08-11T15:26:38;100163.63;;;34.37;18.23
26823;BME280;14852;51.910;8.878;2022-08-11T15:29:26;100160.56;;;34.34;18.29
26823;BME280;14852;51.910;8.878;2022-08-11T15:32:13;100162.09;;;34.23;18.39
26823;BME280;14852;51.910;8.878;2022-08-11T15:34:52;100153.53;;;34.08;18.49
26823;BME280;14852;51.910;8.878;2022-08-11T15:37:50;100160.94;;;33.94;18.81
26823;BME280;14852;51.910;8.878;2022-08-11T15:40:36;100153.16;;;33.86;18.58
26823;BME280;14852;51.910;8.878;2022-08-11T15:43:27;100151.38;;;33.73;18.66
26823;BME280;14852;51.910;8.878;2022-08-11T15:46:32;100145.38;;;33.71;18.54
26823;BME280;14852;51.910;8.878;2022-08-11T15:49:27;100142.25;;;33.74;18.44
26823;BME280;14852;51.910;8.878;2022-08-11T15:52:10;100146.19;;;33.78;18.48
26823;BME280;14852;51.910;8.878;2022-08-11T15:54:40;100140.41;;;33.75;19.06
26823;BME280;14852;51.910;8.878;2022-08-11T15:57:09;100132.84;;;33.84;18.93
26823;BME280;14852;51.910;8.878;2022-08-11T15:59:56;100142.16;;;33.88;18.88
26823;BME280;14852;51.910;8.878;2022-08-11T16:02:57;100132.41;;;33.87;18.86
26823;BME280;14852;51.910;8.878;2022-08-11T16:05:43;100128.66;;;33.88;19.22
26823;BME280;14852;51.910;8.878;2022-08-11T16:08:13;100130.75;;;33.86;18.83
26823;BME280;14852;51.910;8.878;2022-08-11T16:10:41;100131.06;;;33.77;18.85
26823;BME280;14852;51.910;8.878;2022-08-11T16:13:09;100124.00;;;33.76;19.35
26823;BME280;14852;51.910;8.878;2022-08-11T16:15:48;100125.81;;;33.83;19.26
26823;BME280;14852;51.910;8.878;2022-08-11T16:21:17;100123.94;;;33.83;19.18
26823;BME280;14852;51.910;8.878;2022-08-11T16:23:46;100118.31;;;33.85;19.00
26823;BME280;14852;51.910;8.878;2022-08-11T16:26:18;100113.16;;;33.83;18.95
26823;BME280;14852;51.910;8.878;2022-08-11T16:28:53;100113.53;;;33.87;19.36
26823;BME280;14852;51.910;8.878;2022-08-11T16:31:23;100112.19;;;33.96;18.86
26823;BME280;14852;51.910;8.878;2022-08-11T16:33:51;100111.44;;;33.89;19.18
26823;BME280;14852;51.910;8.878;2022-08-11T16:36:19;100113.63;;;33.73;18.98
26823;BME280;14852;51.910;8.878;2022-08-11T16:39:05;100122.34;;;33.51;18.85
26823;BME280;14852;51.910;8.878;2022-08-11T16:41:34;100107.50;;;33.41;19.20
26823;BME280;14852;51.910;8.878;2022-08-11T16:44:21;100099.25;;;33.36;18.96
26823;BME280;14852;51.910;8.878;2022-08-11T16:47:11;100103.88;;;33.29;19.40
26823;BME280;14852;51.910;8.878;2022-08-11T16:49:48;100102.63;;;33.32;19.39